Time;durP1;ratioP1;P1;durP2;ratioP2;P2;SDS_P1;SDS_P2;PMS_P1;PMS_P2;Temp;Humidity;BMP_temperature;BMP_pressure;BME280_temperature;BME280_humidity;BME280_pressure;Samples;Min_cycle;Max_cycle;Signal;HPM_P1;HPM_P2
2023/01/31 00:01:08;;;;;;;5.05;0.73;;;;;;;7.29;63.51;101184.66;10265654;28;20063;-68
2023/01/31 00:06:17;;;;;;;16.13;2.22;;;;;;;7.31;62.71;101172.00;10272993;28;20046;-68
2023/01/31 00:11:21;;;;;;;7.53;0.98;;;;;;;7.26;62.92;101174.19;10274602;28;20047;-66
2023/01/31 00:16:23;;;;;;;11.43;1.00;;;;;;;7.21;63.59;101168.44;10286435;28;20188;-65
2023/01/31 00:21:26;;;;;;;13.00;1.50;;;;;;;7.00;64.81;101170.28;10280039;28;20051;-68
2023/01/31 00:26:30;;;;;;;11.10;1.60;;;;;;;7.02;63.96;101173.69;10287616;28;20067;-67
2023/01/31 00:31:33;;;;;;;11.40;1.30;;;;;;;6.91;64.15;101177.25;10284899;28;20119;-65
2023/01/31 00:36:35;;;;;;;12.52;0.98;;;;;;;6.79;64.61;101170.28;10281359;28;20702;-65
2023/01/31 00:41:38;;;;;;;6.45;0.93;;;;;;;6.63;64.36;101168.91;10264923;28;20141;-67
2023/01/31 00:46:39;;;;;;;8.70;0.85;;;;;;;6.50;64.52;101166.47;10261461;28;20518;-66
2023/01/31 00:51:41;;;;;;;7.15;1.15;;;;;;;6.38;65.42;101166.63;10266045;28;20490;-67
2023/01/31 00:56:43;;;;;;;11.65;1.08;;;;;;;6.34;65.67;101161.56;10269025;28;20042;-67
2023/01/31 01:01:45;;;;;;;4.63;0.65;;;;;;;6.28;65.08;101174.56;10263176;28;20078;-63
2023/01/31 01:06:46;;;;;;;8.95;1.10;;;;;;;6.21;65.94;101176.06;10276290;28;20057;-66
2023/01/31 01:11:48;;;;;;;6.47;0.80;;;;;;;6.13;65.20;101166.00;10287803;28;20047;-67
2023/01/31 01:16:49;;;;;;;6.13;0.88;;;;;;;6.19;65.13;101175.34;10282961;28;20083;-65
2023/01/31 01:21:54;;;;;;;10.73;1.38;;;;;;;6.19;65.55;101184.19;10275545;28;20074;-66
2023/01/31 01:26:55;;;;;;;8.05;1.60;;;;;;;6.11;65.51;101190.16;10282596;28;20058;-64
2023/01/31 01:31:56;;;;;;;6.10;1.33;;;;;;;6.01;65.35;101196.38;10275173;28;20494;-68
2023/01/31 01:36:58;;;;;;;7.55;1.00;;;;;;;5.90;65.77;101195.38;10271288;28;20047;-66
2023/01/31 01:41:59;;;;;;;7.35;1.40;;;;;;;5.81;65.56;101190.81;10265672;28;20047;-64
2023/01/31 01:47:01;;;;;;;13.38;1.40;;;;;;;5.70;66.42;101181.00;10280966;28;20563;-65
2023/01/31 01:52:05;;;;;;;9.40;1.10;;;;;;;5.66;66.30;101179.56;10305524;28;20111;-62
2023/01/31 01:57:09;;;;;;;11.75;1.98;;;;;;;5.55;67.13;101190.25;10303767;28;20039;-62
2023/01/31 02:02:13;;;;;;;8.77;1.52;;;;;;;5.48;67.54;101195.22;10291330;28;20050;-67
2023/01/31 02:07:14;;;;;;;10.82;1.45;;;;;;;5.27;67.82;101208.44;10287734;28;20066;-66
2023/01/31 02:12:16;;;;;;;7.18;1.60;;;;;;;5.39;68.05;101190.63;10267762;28;20058;-64
2023/01/31 02:17:18;;;;;;;6.88;0.85;;;;;;;5.39;67.42;101189.75;10272880;28;20137;-66
2023/01/31 02:22:37;;;;;;;14.00;1.40;;;;;;;5.37;67.89;101187.22;10268759;28;20160;-68
2023/01/31 02:27:53;;;;;;;14.32;2.95;;;;;;;5.14;68.30;101186.38;10284759;28;20047;-64
2023/01/31 02:32:59;;;;;;;12.35;1.92;;;;;;;5.27;67.99;101181.78;10301931;28;20051;-65
2023/01/31 02:38:29;;;;;;;13.32;1.70;;;;;;;5.22;68.28;101186.63;10292304;28;20051;-64
2023/01/31 02:49:35;;;;;;;12.73;2.33;;;;;;;5.14;68.27;101191.69;10299921;28;20047;-64
2023/01/31 02:59:57;;;;;;;15.60;2.10;;;;;;;5.10;68.17;101198.25;10293185;28;20050;-66
2023/01/31 03:04:59;;;;;;;12.10;1.83;;;;;;;5.14;68.16;101215.69;10301336;28;20046;-65
2023/01/31 03:10:26;;;;;;;14.82;1.65;;;;;;;5.11;68.33;101221.25;10301317;28;20110;-66
2023/01/31 03:21:43;;;;;;;12.82;1.88;;;;;;;5.00;68.41;101226.56;10129394;29;20049;-66
2023/01/31 03:26:45;;;;;;;14.18;1.90;;;;;;;5.05;68.60;101227.06;10275978;28;20087;-62
2023/01/31 03:31:53;;;;;;;17.08;1.88;;;;;;;5.03;68.86;101221.00;10298157;28;20059;-62
2023/01/31 03:37:09;;;;;;;14.63;2.08;;;;;;;5.08;69.05;101234.81;10299703;28;20093;-65
2023/01/31 03:42:56;;;;;;;8.00;1.90;;;;;;;5.13;68.92;101228.16;10292459;28;20059;-62
2023/01/31 03:47:59;;;;;;;9.38;1.30;;;;;;;5.18;68.35;101224.31;10259927;28;20106;-64
2023/01/31 03:53:07;;;;;;;10.02;1.17;;;;;;;5.18;68.61;101238.47;10261659;28;20790;-67
2023/01/31 03:58:12;;;;;;;17.38;1.52;;;;;;;5.32;68.20;101237.38;10287536;28;20074;-66
2023/01/31 04:03:26;;;;;;;11.23;2.08;;;;;;;5.20;68.21;101255.19;10288113;28;20109;-65
2023/01/31 04:08:29;;;;;;;19.25;2.30;;;;;;;5.14;68.30;101253.84;10282752;28;20043;-64
2023/01/31 04:13:31;;;;;;;11.27;1.30;;;;;;;5.10;68.45;101247.06;10283700;28;20059;-66
2023/01/31 04:18:32;;;;;;;12.00;1.70;;;;;;;5.02;68.81;101246.78;10284964;28;20066;-63
2023/01/31 04:23:37;;;;;;;7.88;1.15;;;;;;;5.08;68.37;101238.31;10301425;28;20046;-66
2023/01/31 04:28:39;;;;;;;14.48;1.45;;;;;;;5.12;68.26;101233.63;10273713;28;20074;-62
2023/01/31 04:33:41;;;;;;;22.20;2.25;;;;;;;5.12;68.20;101238.94;10312641;28;20045;-62
2023/01/31 04:38:42;;;;;;;22.50;3.40;;;;;;;5.19;68.12;101225.97;10311950;28;20043;-67
2023/01/31 04:43:43;;;;;;;11.13;1.02;;;;;;;5.14;67.35;101213.88;10277854;28;20043;-66
2023/01/31 04:48:45;;;;;;;13.02;1.95;;;;;;;5.15;67.94;101204.03;10272613;28;20054;-65
2023/01/31 04:53:46;;;;;;;7.30;1.48;;;;;;;5.17;67.80;101204.78;10275362;28;20054;-63
2023/01/31 04:58:48;;;;;;;9.68;2.72;;;;;;;5.21;67.23;101192.06;10290241;28;20101;-67
2023/01/31 05:03:49;;;;;;;13.77;2.63;;;;;;;5.15;67.41;101193.38;10270058;28;20072;-64
2023/01/31 05:08:53;;;;;;;23.70;1.88;;;;;;;5.09;66.83;101205.38;10271643;28;20415;-67
2023/01/31 05:13:54;;;;;;;11.10;1.27;;;;;;;5.06;67.37;101205.63;10271146;28;20055;-67
2023/01/31 05:18:56;;;;;;;8.50;2.03;;;;;;;4.96;67.74;101208.16;10276869;28;20055;-61
2023/01/31 05:23:57;;;;;;;12.27;2.20;;;;;;;4.86;67.80;101200.97;10282095;28;20048;-62
2023/01/31 05:29:01;;;;;;;9.30;1.35;;;;;;;4.70;68.68;101194.16;10287021;28;20050;-65
2023/01/31 05:34:02;;;;;;;8.52;1.00;;;;;;;4.70;68.86;101199.50;10300371;28;20066;-63
2023/01/31 05:39:04;;;;;;;9.65;1.58;;;;;;;4.70;68.40;101199.50;10295624;28;20081;-64
2023/01/31 05:44:05;;;;;;;9.40;1.20;;;;;;;4.67;67.92;101197.06;10295229;28;20051;-66
2023/01/31 05:49:08;;;;;;;23.73;2.65;;;;;;;4.65;68.45;101196.31;10276891;28;20705;-66
2023/01/31 05:54:10;;;;;;;16.25;1.70;;;;;;;4.62;68.44;101195.69;10266547;28;20264;-64
2023/01/31 05:59:12;;;;;;;10.60;0.90;;;;;;;4.62;67.96;101187.72;10272965;28;20054;-68
2023/01/31 06:04:13;;;;;;;9.40;1.15;;;;;;;4.60;68.37;101179.00;10269845;28;20074;-65
2023/01/31 06:09:14;;;;;;;11.07;1.30;;;;;;;4.56;68.11;101186.38;10267063;28;20170;-66
2023/01/31 06:14:16;;;;;;;7.07;1.00;;;;;;;4.54;68.40;101177.66;10242365;28;20082;-66
2023/01/31 06:19:17;;;;;;;13.02;1.42;;;;;;;4.52;68.50;101179.56;10262445;28;20055;-64
2023/01/31 06:24:19;;;;;;;13.75;1.27;;;;;;;4.52;68.16;101185.78;10283843;28;20047;-67
2023/01/31 06:29:20;;;;;;;11.50;1.70;;;;;;;4.51;68.21;101202.69;10282853;28;20140;-68
2023/01/31 06:34:22;;;;;;;15.32;1.88;;;;;;;4.50;68.38;101201.00;10278187;28;20121;-67
2023/01/31 06:39:23;;;;;;;10.05;1.77;;;;;;;4.54;68.37;101193.63;10272348;28;20505;-66
2023/01/31 06:44:24;;;;;;;12.30;1.92;;;;;;;4.62;67.98;101207.22;10259226;28;20145;-66
2023/01/31 06:49:27;;;;;;;13.90;2.33;;;;;;;4.61;67.94;101210.00;10263102;28;20591;-66
2023/01/31 06:54:29;;;;;;;15.35;1.75;;;;;;;4.66;67.94;101203.38;10277607;28;20058;-66
2023/01/31 06:59:30;;;;;;;7.78;2.90;;;;;;;4.69;68.01;101203.09;10260818;28;20043;-65
2023/01/31 07:04:33;;;;;;;13.85;2.55;;;;;;;4.70;67.77;101206.63;10301727;28;20065;-63
2023/01/31 07:09:34;;;;;;;9.80;0.95;;;;;;;4.69;67.75;101216.44;10303511;28;20051;-64
2023/01/31 07:14:36;;;;;;;24.88;4.05;;;;;;;4.67;67.94;101207.72;10288826;28;20035;-63
2023/01/31 07:19:37;;;;;;;12.18;1.60;;;;;;;4.68;67.67;101209.41;10311050;28;20125;-63
2023/01/31 07:24:39;;;;;;;8.85;1.63;;;;;;;4.67;67.86;101220.19;10311969;28;20233;-64
2023/01/31 07:29:40;;;;;;;12.82;2.38;;;;;;;4.73;67.74;101209.91;10312935;28;20035;-63
2023/01/31 07:34:42;;;;;;;14.00;1.52;;;;;;;4.76;68.11;101215.00;10318147;28;20039;-63
2023/01/31 07:39:43;;;;;;;12.13;1.83;;;;;;;4.75;68.04;101207.13;10315440;28;20023;-64
2023/01/31 07:44:44;;;;;;;9.82;1.67;;;;;;;4.87;67.99;101198.19;10315351;28;20051;-64
2023/01/31 07:49:49;;;;;;;11.13;2.08;;;;;;;4.98;68.18;101194.72;10309602;28;20035;-64
2023/01/31 07:54:50;;;;;;;15.50;3.53;;;;;;;5.10;68.29;101206.25;10313114;28;20031;-63
2023/01/31 07:59:52;;;;;;;17.88;3.30;;;;;;;5.20;68.11;101201.88;10310133;28;20051;-65
2023/01/31 08:04:53;;;;;;;19.75;3.10;;;;;;;5.38;67.19;101206.75;10301032;28;20039;-63
2023/01/31 08:09:55;;;;;;;12.85;2.78;;;;;;;5.41;67.86;101211.81;10301758;28;20106;-63
2023/01/31 08:14:56;;;;;;;9.23;2.00;;;;;;;5.41;67.77;101212.69;10302373;28;20408;-69
2023/01/31 08:19:57;;;;;;;13.13;1.70;;;;;;;5.38;67.38;101209.41;10272335;28;20050;-67
2023/01/31 08:24:59;;;;;;;15.43;1.60;;;;;;;5.36;67.24;101206.84;10262261;28;20161;-68
2023/01/31 08:30:00;;;;;;;13.43;2.03;;;;;;;5.38;67.63;101209.41;10266419;28;20086;-67
2023/01/31 08:35:02;;;;;;;15.35;2.40;;;;;;;5.34;67.25;101212.28;10258517;28;20154;-63
2023/01/31 08:40:04;;;;;;;10.30;2.28;;;;;;;5.29;67.18;101208.28;10263565;28;20471;-67
2023/01/31 08:45:06;;;;;;;16.80;2.78;;;;;;;5.31;66.95;101211.69;10264282;28;20096;-68
2023/01/31 08:50:08;;;;;;;9.32;2.55;;;;;;;5.27;67.15;101218.22;10254475;28;20054;-68
2023/01/31 08:55:29;;;;;;;13.77;3.05;;;;;;;5.34;67.34;101220.28;10263415;28;20880;-68
2023/01/31 09:00:31;;;;;;;14.20;3.00;;;;;;;5.41;67.11;101212.69;10262139;28;20082;-65
2023/01/31 09:05:32;;;;;;;11.70;2.63;;;;;;;5.46;66.85;101212.31;10258626;28;20138;-64
2023/01/31 09:10:35;;;;;;;18.80;4.35;;;;;;;5.45;67.27;101229.25;10264048;28;20078;-66
2023/01/31 09:15:36;;;;;;;18.55;4.22;;;;;;;5.48;67.40;101227.22;10262339;28;20609;-67
2023/01/31 09:20:38;;;;;;;13.85;4.45;;;;;;;5.58;67.15;101248.66;10265293;28;20066;-66
2023/01/31 09:25:39;;;;;;;15.25;4.63;;;;;;;5.65;66.70;101211.72;10263425;28;20150;-67
2023/01/31 09:30:48;;;;;;;18.25;5.30;;;;;;;5.63;66.65;101214.50;10262666;28;20051;-65
2023/01/31 09:35:57;;;;;;;14.85;5.20;;;;;;;5.78;66.92;101230.22;10271476;28;20058;-64
2023/01/31 09:41:02;;;;;;;15.20;5.38;;;;;;;5.74;66.63;101234.94;10269061;28;20047;-67
2023/01/31 09:46:10;;;;;;;13.45;5.32;;;;;;;5.81;66.73;101216.66;10264859;28;20051;-65
2023/01/31 09:51:12;;;;;;;16.10;5.90;;;;;;;5.85;66.77;101188.75;10269072;28;20070;-64
2023/01/31 09:56:33;;;;;;;19.45;6.90;;;;;;;5.77;66.67;101168.03;10270032;28;20070;-66
2023/01/31 10:01:43;;;;;;;20.15;6.30;;;;;;;5.71;67.34;101182.72;10269490;28;20090;-68
2023/01/31 10:06:58;;;;;;;20.52;5.70;;;;;;;5.70;67.04;101189.00;10263580;28;20051;-62
2023/01/31 10:12:15;;;;;;;18.77;6.20;;;;;;;5.74;66.46;101205.59;10265853;28;20070;-64
2023/01/31 10:17:27;;;;;;;14.00;5.78;;;;;;;5.76;66.59;101199.16;10261774;28;20046;-62
2023/01/31 10:22:40;;;;;;;16.92;5.00;;;;;;;5.68;66.58;101204.28;10260509;28;20059;-65
2023/01/31 10:27:50;;;;;;;15.63;5.28;;;;;;;5.76;66.81;101188.50;10261224;28;20572;-65
2023/01/31 10:33:16;;;;;;;22.48;6.00;;;;;;;5.91;66.70;101170.41;10261936;28;20050;-66
2023/01/31 10:38:23;;;;;;;17.50;5.88;;;;;;;5.81;66.57;101179.31;10261214;28;20055;-66
2023/01/31 10:43:38;;;;;;;16.92;5.05;;;;;;;5.79;66.75;101157.25;10274694;28;20042;-64
2023/01/31 10:48:43;;;;;;;14.52;4.65;;;;;;;5.82;67.05;101160.47;10273861;28;20078;-62
2023/01/31 10:54:03;;;;;;;13.82;4.32;;;;;;;5.94;67.19;101166.63;10252400;28;20058;-67
2023/01/31 10:59:13;;;;;;;12.35;4.57;;;;;;;5.97;67.31;101153.09;10268162;28;20054;-67
2023/01/31 11:04:30;;;;;;;16.10;5.88;;;;;;;5.98;67.44;101146.75;10247701;28;20495;-64
2023/01/31 11:09:37;;;;;;;16.80;6.13;;;;;;;5.92;67.38;101133.91;10256244;28;20070;-67
2023/01/31 11:14:38;;;;;;;20.15;7.10;;;;;;;6.15;66.93;101110.69;10273327;28;20051;-65
2023/01/31 11:19:45;;;;;;;21.45;5.75;;;;;;;6.25;66.54;101090.22;10274563;28;20055;-66
2023/01/31 11:24:48;;;;;;;16.60;6.47;;;;;;;6.31;66.42;101105.72;10266894;28;20313;-66
2023/01/31 11:29:50;;;;;;;14.82;5.88;;;;;;;6.34;66.08;101096.63;10264352;28;20058;-67
2023/01/31 11:34:59;;;;;;;18.38;6.80;;;;;;;6.40;66.80;101066.75;10262996;28;20051;-65
2023/01/31 11:40:18;;;;;;;18.73;5.57;;;;;;;6.46;66.54;101058.19;10257285;28;20059;-67
2023/01/31 11:45:26;;;;;;;17.08;5.93;;;;;;;6.54;66.24;101061.06;10262822;28;20055;-65
2023/01/31 11:50:33;;;;;;;13.85;4.55;;;;;;;6.66;66.77;101036.94;10261515;28;20484;-65
2023/01/31 11:55:37;;;;;;;16.25;4.72;;;;;;;6.64;66.21;101029.06;10258895;28;20058;-66
2023/01/31 12:00:52;;;;;;;17.80;5.32;;;;;;;6.69;65.72;101010.78;10255513;28;20050;-65
2023/01/31 12:06:07;;;;;;;20.35;4.78;;;;;;;6.75;65.96;101036.97;10269272;28;20070;-66
2023/01/31 12:11:18;;;;;;;11.23;3.88;;;;;;;6.80;65.97;101028.56;10267445;28;20051;-67
2023/01/31 12:16:23;;;;;;;11.95;4.03;;;;;;;6.69;65.57;101004.59;10254739;28;20466;-66
2023/01/31 12:21:50;;;;;;;13.73;4.03;;;;;;;6.83;65.84;100976.66;10264112;28;20082;-68
2023/01/31 12:27:04;;;;;;;6.70;2.93;;;;;;;6.87;66.17;100973.59;10263921;28;20047;-64
2023/01/31 12:32:30;;;;;;;9.88;3.55;;;;;;;6.95;65.21;100957.72;10280371;28;20039;-62
2023/01/31 12:37:48;;;;;;;10.43;3.55;;;;;;;6.93;65.24;100958.81;10309580;28;20027;-62
2023/01/31 12:42:58;;;;;;;;;;;;;;;7.00;65.60;100954.63;10313566;28;20085;-62
2023/01/31 12:48:21;;;;;;;14.27;4.40;;;;;;;7.06;65.33;100932.69;10311785;28;19927;-62
2023/01/31 12:53:46;;;;;;;17.08;4.88;;;;;;;7.14;64.93;100923.97;10302169;28;20042;-62
2023/01/31 12:59:01;;;;;;;13.18;4.43;;;;;;;7.16;64.94;100932.69;10308445;28;20102;-62
2023/01/31 13:04:35;;;;;;;13.60;3.83;;;;;;;7.21;65.45;100914.41;10292588;28;20290;-63
2023/01/31 13:09:37;;;;;;;13.30;3.55;;;;;;;7.18;64.91;100901.31;10314946;28;20066;-62
2023/01/31 13:14:47;;;;;;;11.13;3.88;;;;;;;7.24;65.15;100895.41;10312833;28;20062;-63
2023/01/31 13:19:53;;;;;;;10.70;3.67;;;;;;;7.20;65.27;100859.25;10310743;28;20596;-62
2023/01/31 13:25:19;;;;;;;14.10;3.83;;;;;;;7.27;65.18;100864.88;10309495;28;20070;-62
2023/01/31 13:30:41;;;;;;;14.48;5.05;;;;;;;7.40;65.76;100861.91;10312822;28;20074;-62
2023/01/31 13:35:47;;;;;;;10.65;4.78;;;;;;;7.37;66.01;100863.03;10309048;28;20043;-62
2023/01/31 13:40:53;;;;;;;17.58;5.82;;;;;;;7.14;66.53;100871.34;10301807;28;20051;-62
2023/01/31 13:46:08;;;;;;;16.40;5.57;;;;;;;6.92;67.22;100883.16;10304794;28;20086;-61
2023/01/31 13:51:19;;;;;;;16.75;5.30;;;;;;;6.87;67.97;100871.19;10304031;28;20157;-61
2023/01/31 13:56:28;;;;;;;18.50;5.15;;;;;;;6.77;68.66;100876.50;10282949;28;20050;-61
2023/01/31 14:01:34;;;;;;;15.27;5.55;;;;;;;6.78;68.86;100864.03;10263721;28;20058;-61
2023/01/31 14:06:54;;;;;;;14.75;4.35;;;;;;;6.78;68.68;100867.53;10253801;28;20047;-62
2023/01/31 14:12:16;;;;;;;19.02;6.60;;;;;;;6.63;69.06;100863.56;10281845;28;20098;-61
2023/01/31 14:17:20;;;;;;;21.73;6.65;;;;;;;6.57;69.40;100856.94;10278191;28;20047;-61
2023/01/31 14:22:30;;;;;;;18.45;6.47;;;;;;;6.36;70.68;100865.06;10298415;28;20063;-61
2023/01/31 14:27:38;;;;;;;21.25;7.88;;;;;;;6.26;72.35;100872.16;10304507;28;20039;-61
2023/01/31 14:32:47;;;;;;;20.52;5.97;;;;;;;6.29;71.74;100871.91;10317472;28;20043;-62
2023/01/31 14:38:04;;;;;;;19.50;5.45;;;;;;;6.27;72.59;100871.19;10318032;28;20042;-61
2023/01/31 14:43:18;;;;;;;14.23;3.45;;;;;;;6.24;73.07;100866.97;10316103;28;20043;-60
2023/01/31 14:48:48;;;;;;;19.17;6.18;;;;;;;6.17;73.91;100881.84;10306854;28;20054;-59
2023/01/31 14:54:12;;;;;;;23.27;5.93;;;;;;;6.24;73.06;100869.66;10279419;28;20051;-59
2023/01/31 14:59:32;;;;;;;16.60;6.07;;;;;;;6.27;73.56;100872.03;10297203;28;20078;-58
2023/01/31 15:04:34;;;;;;;14.15;5.85;;;;;;;6.37;73.60;100881.91;10293997;28;20051;-59
2023/01/31 15:09:38;;;;;;;15.82;6.18;;;;;;;6.28;74.19;100870.19;10294119;28;20046;-59
2023/01/31 15:14:45;;;;;;;15.13;6.07;;;;;;;6.28;74.83;100860.38;10286296;28;20050;-58
2023/01/31 15:20:15;;;;;;;17.00;5.80;;;;;;;6.32;75.35;100861.81;10298548;28;20051;-59
2023/01/31 15:25:27;;;;;;;16.25;5.72;;;;;;;6.41;74.69;100860.13;10294856;28;20055;-59
2023/01/31 15:30:32;;;;;;;15.80;5.32;;;;;;;6.45;74.61;100868.72;10294198;28;20055;-58
2023/01/31 15:35:45;;;;;;;16.90;6.05;;;;;;;6.53;74.90;100864.38;10285792;28;20043;-58
2023/01/31 15:40:46;;;;;;;16.58;5.85;;;;;;;6.53;74.89;100867.03;10280728;28;20125;-58
2023/01/31 15:45:51;;;;;;;18.90;6.65;;;;;;;6.60;75.38;100864.69;10278752;28;20043;-58
2023/01/31 15:50:57;;;;;;;16.88;5.97;;;;;;;6.62;75.29;100848.53;10331764;23;20146;-61
2023/01/31 15:56:02;;;;;;;21.80;7.47;;;;;;;6.68;75.83;100831.94;10265122;23;20395;-60
2023/01/31 16:01:04;;;;;;;18.55;6.68;;;;;;;6.70;75.51;100852.19;10262085;28;20305;-61
2023/01/31 16:06:20;;;;;;;16.45;5.47;;;;;;;6.71;75.13;100861.03;10283363;28;20058;-59
2023/01/31 16:11:24;;;;;;;21.02;6.78;;;;;;;6.73;75.71;100865.28;10304238;28;20063;-57
2023/01/31 16:16:27;;;;;;;19.77;5.75;;;;;;;6.72;75.17;100870.75;10301624;28;20038;-60
2023/01/31 16:21:32;;;;;;;18.25;7.22;;;;;;;6.72;75.16;100884.94;10301036;28;20051;-59
2023/01/31 16:26:38;;;;;;;16.80;6.78;;;;;;;6.75;76.05;100879.34;10292164;28;20048;-60
2023/01/31 16:31:49;;;;;;;21.92;6.28;;;;;;;6.83;75.44;100881.31;10290900;28;20058;-57
2023/01/31 16:37:01;;;;;;;14.45;6.07;;;;;;;6.87;75.67;100877.38;10272028;28;20493;-59
2023/01/31 16:42:21;;;;;;;17.05;6.53;;;;;;;6.97;74.92;100874.72;10267966;28;20618;-58
2023/01/31 16:47:51;;;;;;;15.68;5.63;;;;;;;7.01;74.97;100875.28;10234913;28;20066;-57
2023/01/31 16:53:24;;;;;;;20.70;6.90;;;;;;;6.94;75.40;100878.50;10251851;28;20055;-59
2023/01/31 16:58:49;;;;;;;18.40;6.82;;;;;;;6.95;75.38;100865.97;10257477;28;20125;-58
2023/01/31 17:04:03;;;;;;;14.93;5.72;;;;;;;6.98;75.47;100878.25;10258095;28;20054;-58
2023/01/31 17:09:14;;;;;;;18.98;7.20;;;;;;;7.03;74.77;100884.88;10261484;28;20121;-59
2023/01/31 17:14:16;;;;;;;12.02;5.30;;;;;;;7.03;75.12;100875.97;10260423;28;20058;-58
2023/01/31 17:19:17;;;;;;;9.68;4.53;;;;;;;7.01;75.38;100881.47;10260150;28;20129;-58
2023/01/31 17:24:21;;;;;;;18.42;5.10;;;;;;;6.88;76.34;100873.72;10261198;28;20055;-58
2023/01/31 17:29:24;;;;;;;14.52;6.03;;;;;;;6.87;75.75;100890.75;10258047;28;20063;-58
2023/01/31 17:34:26;;;;;;;15.25;4.90;;;;;;;6.91;76.41;100875.25;10255609;28;20055;-59
2023/01/31 17:39:27;;;;;;;14.30;5.57;;;;;;;6.93;75.77;100866.16;10258837;28;20046;-58
2023/01/31 17:44:29;;;;;;;14.75;4.70;;;;;;;6.94;76.02;100877.66;10255645;28;20082;-59
2023/01/31 17:49:30;;;;;;;8.80;4.07;;;;;;;6.99;76.59;100878.09;10256997;28;20145;-58
2023/01/31 17:54:32;;;;;;;11.57;4.00;;;;;;;7.02;76.44;100879.66;10254948;28;20624;-58
2023/01/31 17:59:33;;;;;;;11.48;3.30;;;;;;;7.06;75.87;100875.72;10254159;28;20383;-58
2023/01/31 18:04:35;;;;;;;8.00;3.15;;;;;;;7.08;75.49;100865.72;10252745;28;20178;-58
2023/01/31 18:09:36;;;;;;;6.53;3.05;;;;;;;7.10;75.31;100863.75;10255947;28;20055;-58
2023/01/31 18:14:37;;;;;;;7.68;2.92;;;;;;;7.12;75.79;100870.63;10254904;28;20580;-58
2023/01/31 18:19:39;;;;;;;4.18;2.42;;;;;;;7.20;75.86;100869.09;10257954;28;20570;-59
2023/01/31 18:24:40;;;;;;;6.75;2.83;;;;;;;7.27;75.22;100875.56;10256029;28;20074;-58
2023/01/31 18:29:41;;;;;;;4.43;1.83;;;;;;;7.24;75.14;100879.34;10257449;28;20122;-58
2023/01/31 18:34:43;;;;;;;5.95;2.55;;;;;;;7.18;75.35;100873.75;10253335;28;20118;-59
2023/01/31 18:39:48;;;;;;;5.15;1.58;;;;;;;7.15;75.85;100861.50;10257089;28;20059;-59
2023/01/31 18:44:50;;;;;;;2.85;1.33;;;;;;;7.17;76.05;100870.22;10259946;28;20153;-58
2023/01/31 18:49:51;;;;;;;3.92;2.00;;;;;;;7.23;76.02;100884.88;10259068;28;20075;-59
2023/01/31 18:54:53;;;;;;;7.25;3.35;;;;;;;7.17;76.08;100882.72;10259932;28;20129;-58
2023/01/31 18:59:54;;;;;;;5.28;2.92;;;;;;;7.15;76.55;100882.91;10258762;28;20134;-58
2023/01/31 19:04:55;;;;;;;3.05;2.00;;;;;;;7.15;76.43;100872.19;10261606;28;20070;-58
2023/01/31 19:09:57;;;;;;;5.80;1.65;;;;;;;7.17;76.06;100882.72;10270578;28;20070;-59
2023/01/31 19:14:58;;;;;;;2.88;1.27;;;;;;;7.21;76.46;100886.81;10265753;28;20134;-59
2023/01/31 19:19:59;;;;;;;1.33;0.85;;;;;;;7.27;76.08;100887.13;10262306;28;20070;-58
2023/01/31 19:25:01;;;;;;;2.55;1.40;;;;;;;7.24;76.04;100871.34;10263296;28;20078;-58
2023/01/31 19:30:03;;;;;;;2.53;1.55;;;;;;;7.26;75.96;100885.41;10264098;28;20063;-58
2023/01/31 19:35:04;;;;;;;5.13;1.63;;;;;;;7.29;75.75;100889.66;10264433;28;20510;-58
2023/01/31 19:40:07;;;;;;;1.50;1.20;;;;;;;7.30;75.60;100875.28;10265546;28;20051;-58
2023/01/31 19:45:10;;;;;;;9.00;2.95;;;;;;;7.34;76.01;100856.13;10263496;28;20047;-58
2023/01/31 19:50:11;;;;;;;4.72;1.70;;;;;;;7.34;75.56;100864.16;10268104;28;20046;-59
2023/01/31 19:55:13;;;;;;;2.20;1.40;;;;;;;7.41;75.96;100868.94;10264040;28;20055;-59
2023/01/31 20:00:14;;;;;;;3.05;1.70;;;;;;;7.46;75.95;100864.00;10261674;28;20090;-59
2023/01/31 20:05:16;;;;;;;2.70;1.55;;;;;;;7.49;75.19;100874.44;10253937;28;20054;-58
2023/01/31 20:10:17;;;;;;;3.65;1.23;;;;;;;7.56;75.49;100867.50;10258176;28;20058;-58
2023/01/31 20:15:19;;;;;;;1.75;1.13;;;;;;;7.57;75.41;100869.19;10265486;28;20086;-58
2023/01/31 20:20:22;;;;;;;3.80;1.70;;;;;;;7.60;75.43;100876.09;10259516;28;20055;-58
2023/01/31 20:25:24;;;;;;;4.40;1.70;;;;;;;7.62;75.45;100874.97;10259043;28;20055;-59
2023/01/31 20:30:25;;;;;;;5.45;1.75;;;;;;;7.64;75.43;100862.28;10258777;28;20054;-60
2023/01/31 20:35:27;;;;;;;3.10;1.90;;;;;;;7.67;75.18;100867.34;10260453;28;20090;-59
2023/01/31 20:40:28;;;;;;;6.00;2.00;;;;;;;7.75;74.95;100867.47;10263441;28;20115;-59
2023/01/31 20:45:31;;;;;;;3.65;1.25;;;;;;;7.71;74.42;100883.97;10261920;28;20074;-59
2023/01/31 20:50:32;;;;;;;4.45;1.90;;;;;;;7.49;75.18;100893.16;10264411;28;20138;-59
2023/01/31 20:55:33;;;;;;;4.50;2.42;;;;;;;7.29;76.17;100895.84;10276549;28;20094;-59
2023/01/31 21:00:35;;;;;;;5.13;1.80;;;;;;;7.25;76.77;100909.63;10279648;28;20055;-59
2023/01/31 21:05:37;;;;;;;3.55;2.45;;;;;;;7.26;76.20;100920.16;10272489;28;20051;-59
2023/01/31 21:10:39;;;;;;;4.00;2.33;;;;;;;7.24;76.70;100922.13;10261351;28;20062;-59
2023/01/31 21:15:52;;;;;;;6.03;2.47;;;;;;;7.19;76.54;100912.84;10269866;28;20098;-59
2023/01/31 21:20:54;;;;;;;3.95;2.30;;;;;;;7.17;76.98;100909.47;10256572;28;20062;-59
2023/01/31 21:26:00;;;;;;;4.10;2.35;;;;;;;7.18;76.70;100901.31;10267016;28;20604;-59
2023/01/31 21:31:04;;;;;;;4.20;2.05;;;;;;;7.20;76.64;100894.00;10261431;28;20051;-59
2023/01/31 21:36:07;;;;;;;2.55;1.98;;;;;;;7.25;76.65;100893.59;10264983;28;20051;-60
2023/01/31 21:46:29;;;;;;;4.28;3.13;;;;;;;7.31;76.99;100882.31;10261911;28;20113;-59
2023/01/31 21:51:31;;;;;;;5.07;2.63;;;;;;;7.33;76.86;100888.38;10261832;28;20425;-60
2023/01/31 21:56:32;;;;;;;3.28;2.30;;;;;;;7.39;77.13;100882.47;10259703;28;20062;-60
2023/01/31 22:01:35;;;;;;;3.72;2.45;;;;;;;7.38;76.19;100871.91;10261858;28;20051;-59
2023/01/31 22:06:40;;;;;;;6.30;2.42;;;;;;;7.41;76.69;100872.47;10257006;28;20047;-59
2023/01/31 22:11:43;;;;;;;4.68;2.20;;;;;;;7.45;76.64;100875.69;10258914;28;20050;-59
2023/01/31 22:16:45;;;;;;;4.00;1.55;;;;;;;7.47;76.98;100855.00;10261550;28;20406;-60
2023/01/31 22:21:46;;;;;;;4.38;2.45;;;;;;;7.49;77.03;100847.69;10255757;28;20058;-59
2023/01/31 22:26:48;;;;;;;5.43;2.58;;;;;;;7.46;76.56;100843.44;10259078;28;20430;-60
2023/01/31 22:31:49;;;;;;;6.03;2.45;;;;;;;7.45;76.42;100835.59;10255015;28;20055;-59
2023/01/31 22:36:51;;;;;;;3.75;2.00;;;;;;;7.46;76.19;100827.38;10255498;28;20059;-60
2023/01/31 22:41:52;;;;;;;4.50;1.90;;;;;;;7.48;77.00;100838.78;10256517;28;20114;-60
2023/01/31 22:46:54;;;;;;;4.25;2.28;;;;;;;7.49;76.17;100826.28;10262222;28;20505;-60
2023/01/31 22:51:55;;;;;;;3.47;2.45;;;;;;;7.47;76.50;100831.75;10260511;28;20125;-60
2023/01/31 22:56:56;;;;;;;3.85;1.70;;;;;;;7.47;76.31;100825.56;10264511;28;20098;-60
2023/01/31 23:01:58;;;;;;;4.38;2.28;;;;;;;7.50;76.47;100828.81;10261067;28;20054;-61
2023/01/31 23:06:59;;;;;;;3.88;2.15;;;;;;;7.49;75.91;100821.75;10264721;28;20447;-59
2023/01/31 23:12:01;;;;;;;4.35;2.47;;;;;;;7.45;75.94;100811.50;10261011;28;20055;-59
2023/01/31 23:22:22;;;;;;;4.85;2.58;;;;;;;7.51;75.97;100800.22;10260273;28;20058;-59
2023/01/31 23:27:24;;;;;;;4.00;1.80;;;;;;;7.52;76.16;100805.44;10263843;28;20085;-59
2023/01/31 23:32:25;;;;;;;3.80;2.22;;;;;;;7.55;75.69;100807.81;10261272;28;20051;-56
2023/01/31 23:37:26;;;;;;;3.42;1.70;;;;;;;7.50;75.49;100806.56;10265429;28;20063;-56
2023/01/31 23:42:28;;;;;;;2.60;1.52;;;;;;;7.48;75.90;100816.56;10267394;28;20106;-58
2023/01/31 23:47:29;;;;;;;3.83;1.80;;;;;;;7.48;75.77;100803.19;10267112;28;20078;-55
2023/01/31 23:52:31;;;;;;;3.53;2.03;;;;;;;7.54;75.74;100795.44;10265242;28;20102;-56
2023/01/31 23:57:32;;;;;;;4.72;1.85;;;;;;;7.58;75.23;100790.63;10256039;28;20078;-57
